Terminal Aerodrome Forecast
Issued by NWS

Home | Current Version | Previous Version | Graphics & Text | Print | Product List | Glossary On
Versions: 1 2 3 4 5 6 7 8 9 10 11 12 13 14 15 16 17 18 19 20 21
644
FTUS43 KICT 211143
TAFHUT
TAF
KHUT 211143Z 2112/2212 01013KT P6SM BKN130
     FM212300 05007KT P6SM OVC035
     FM220200 06013KT 5SM -SN OVC025
     FM220300 06013KT 3SM -PLSN OVC008=

USA.gov is the U.S. government's official web portal to all federal, state and local government web resources and services.